Goehner, Nebraska
Current Conditions -  °F | °C
As of 5:55 PM on Saturday 25 Oct 2014 (Local Time) from KJYR Reporting Station
Clear Clear  
Wind Chill: 66°   Ceiling: Unl
Heat Index: 66°   Visibility: 10mi
Dew Point: 46°   Wind: 8mph
Humidity: 49%   Direction: 90°E
Pressure: 30.04"   Gusts: NA
Location:  40.83°N, 97.22°W
Report Text: KJYR 252255Z AUTO 09007KT 10SM CLR 19/08 A3004 RMK AO2
Loading
Personal Weather Stations






























Interactive Weather Map
Tropical Storm Tracking
New forecast layout! Learn more

10-Day Weather Forecast

Advertisements
Track Severe Weather on mobile